Latest Coastal Weather Observations for Bundaberg

IDQ60701

Issued at 9:55 am EST Saturday 25 October 2014 (issued every 10 minutes, with the page automatically refreshed every 10 minutes)

About coastal observations | Map of coastal stations | Coastal observations for QLD | Marine services | Other Formats
Station Details ID: 039128 Name: BUNDABERG AERO Lat: -24.91 Lon: 152.32 Height: 30.82 m
Data from the previous 72 hours. | See also: Recent months at Bundaberg
Date/Time
EST
Temp

°C
Wind Pressure Rain
since 9am
mm
Weather Cloud Vis
km
Sea
Height
m
Swell
Dir
 
Speed
knots
Gust
knots
hPa Trend Height
m
Period
s
Dir
25/09:30am 24.7 N 5 10 1021.6 - 0.0 - Partly cloudy 10 - - - -
25/09:00am 24.5 NNW 6 9 1021.9 - 0.0 - Partly cloudy 10 - - - -
25/08:30am 23.1 N 9 12 1022.0 - 0.0 - Partly cloudy 10 - - - -
25/08:00am 22.6 NNW 6 8 1021.9 - 0.0 - - 10 - - - -
25/07:30am 21.8 WNW 3 6 1021.8 - 0.0 - - 10 - - - -
25/07:00am 20.1 SW 4 5 1021.7 - 0.0 - - 10 - - - -
25/06:30am 18.2 SSW 3 5 1021.4 - 0.0 - - 10 - - - -
25/06:00am 15.7 SSW 5 6 1021.0 - 0.0 - Mostly clear 10 - - - -
25/05:30am 14.8 S 5 7 1020.6 - 0.0 - Partly cloudy 10 - - - -
25/05:00am 13.9 CALM 0 0 1019.8 - 0.0 - Partly cloudy 10 - - - -
25/04:30am 13.5 SW 0 0 1019.6 - 0.0 - Partly cloudy 10 - - - -
25/04:00am 13.9 SSW 1 4 1019.8 - 0.0 - Partly cloudy 10 - - - -
25/03:30am 13.9 CALM 0 0 1019.4 - 0.0 - - 10 - - - -
25/03:00am 13.8 CALM 0 0 1019.4 - 0.0 - - 10 - - - -
25/02:30am 14.1 CALM 0 0 1019.7 - 0.0 - - 10 - - - -
25/02:00am 14.0 CALM 0 0 1019.9 - 0.0 - - 10 - - - -
25/01:30am 13.9 CALM 0 0 1020.2 - 0.0 - - 10 - - - -
25/01:00am 14.9 S 2 4 1020.4 - 0.0 - - 10 - - - -
25/12:30am 15.1 CALM 0 0 1020.8 - 0.0 - - 10 - - - -
25/12:00am 15.1 SSW 0 0 1021.2 - 0.0 - - 10 - - - -
 
Date/Time
EST
Temp

°C
Wind Pressure Rain
since 9am
mm
Weather Cloud Vis
km
Sea
Height
m
Swell
Dir
 
Speed
knots
Gust
knots
hPa Trend Height
m
Period
s
Dir
24/11:30pm 16.5 S 4 5 1021.4 - 0.0 - - 10 - - - -
24/11:00pm 16.6 S 3 4 1021.4 - 0.0 - - 10 - - - -
24/10:30pm 17.0 S 4 5 1021.8 - 0.0 - - 10 - - - -
24/10:00pm 17.6 S 4 5 1021.8 - 0.0 - - 10 - - - -
24/09:30pm 17.4 SSE 4 5 1022.0 - 0.0 - - 10 - - - -
24/09:00pm 18.2 SSE 3 3 1022.1 - 0.0 - - 10 - - - -
24/08:30pm 19.3 ENE 3 4 1021.9 - 0.0 - - 10 - - - -
24/08:00pm 19.7 ENE 5 6 1021.6 - 0.0 - - 10 - - - -
24/07:30pm 19.9 ENE 4 6 1021.3 - 0.0 - - 10 - - - -
24/07:00pm 20.4 ENE 5 8 1021.2 - 0.0 - - 10 - - - -
24/06:30pm 21.1 ENE 8 10 1021.0 - 0.0 - - 10 - - - -
24/06:00pm 21.6 NNE 11 14 1020.7 - 0.0 - - 10 - - - -
24/05:30pm 22.3 NE 9 12 1020.5 - 0.0 - - 9 - - - -
24/05:00pm 23.2 NE 11 15 1020.2 - 0.0 - - 10 - - - -
24/04:30pm 24.0 NE 12 16 1019.9 - 0.0 - - 10 - - - -
24/04:00pm 24.7 ENE 11 14 1019.6 - 0.0 - - 10 - - - -
24/03:30pm 25.4 NE 11 15 1019.5 - 0.0 - - 10 - - - -
24/03:00pm 25.7 NE 12 17 1019.4 - 0.0 - - 10 - - - -
24/02:30pm 26.2 NE 11 15 1019.7 - 0.0 - - 10 - - - -
24/02:00pm 26.1 NE 13 19 1019.6 - 0.0 - - 10 - - - -
24/01:30pm 26.3 ENE 12 19 1020.0 - 0.0 - - 10 - - - -
24/01:00pm 26.2 ENE 12 18 1020.2 - 0.0 - - 10 - - - -
24/12:30pm 26.7 E 11 18 1020.5 - 0.0 - - 10 - - - -
24/12:00pm 26.3 E 13 20 1020.9 - 0.0 - - 10 - - - -
24/11:30am 26.2 E 13 18 1021.3 - 0.0 - - 10 - - - -
24/11:00am 25.4 E 9 15 1021.5 - 0.0 - Partly cloudy 10 - - - -
24/10:30am 25.2 E 9 14 1021.9 - 0.0 - - 10 - - - -
24/10:00am 24.8 SE 7 13 1022.1 - 0.0 - - 10 - - - -
24/09:30am 24.7 E 7 10 1022.3 - 0.0 - Partly cloudy 10 - - - -
24/09:00am 22.9 SE 5 7 1022.5 - 0.0 - Partly cloudy 10 - - - -
24/08:30am 23.5 SE 6 9 1022.4 - 0.0 - Partly cloudy 10 - - - -
24/08:00am 22.5 ESE 5 9 1022.4 - 0.0 - Partly cloudy 10 - - - -
24/07:30am 21.5 SSE 6 9 1022.1 - 0.0 - - 10 - - - -
24/07:00am 19.0 S 6 8 1021.8 - 0.0 - - 10 - - - -
24/06:30am 17.4 S 6 8 1021.5 - 0.0 - Partly cloudy 10 - - - -
24/06:00am 15.7 S 6 7 1021.5 - 0.0 - Mostly cloudy 10 - - - -
24/05:30am 15.0 S 6 7 1021.2 - 0.0 - Cloudy 10 - - - -
24/05:00am 14.3 SSW 3 4 1020.6 - 0.0 - Partly cloudy 10 - - - -
24/04:30am 14.3 SSW 5 6 1020.3 - 0.0 - - 10 - - - -
24/04:00am 14.6 S 6 8 1020.1 - 0.0 - Partly cloudy 10 - - - -
24/03:30am 14.5 S 4 5 1020.3 - 0.0 - - 10 - - - -
24/03:00am 14.5 S 7 8 1020.5 - 0.0 - Mostly clear 10 - - - -
24/02:30am 14.4 S 3 4 1020.3 - 0.0 - - 10 - - - -
24/02:00am 14.2 CALM 0 0 1020.5 - 0.0 - - 10 - - - -
24/01:30am 14.4 CALM 0 0 1020.7 - 0.0 - - 10 - - - -
24/01:00am 14.5 CALM 0 0 1020.9 - 0.0 - - 10 - - - -
24/12:30am 14.4 CALM 0 0 1021.3 - 0.0 - - 10 - - - -
24/12:00am 15.3 SSE 3 4 1021.4 - 0.0 - - 10 - - - -
 
Date/Time
EST
Temp

°C
Wind Pressure Rain
since 9am
mm
Weather Cloud Vis
km
Sea
Height
m
Swell
Dir
 
Speed
knots
Gust
knots
hPa Trend Height
m
Period
s
Dir
23/11:30pm 16.0 SE 3 4 1021.3 - 0.0 - - 10 - - - -
23/11:00pm 15.8 CALM 0 0 1021.2 - 0.0 - - 10 - - - -
23/10:30pm 16.6 CALM 0 0 1021.3 - 0.0 - - 10 - - - -
23/10:00pm 17.0 CALM 0 0 1021.4 - 0.0 - - 10 - - - -
23/09:30pm 16.9 E 1 3 1021.5 - 0.0 - - 10 - - - -
23/09:00pm 18.7 E 4 4 1021.3 - 0.0 - - 10 - - - -
23/08:30pm 19.1 ENE 3 5 1021.0 - 0.0 - - 10 - - - -
23/08:00pm 19.8 ENE 3 5 1020.7 - 0.0 - - 10 - - - -
23/07:30pm 20.4 NE 6 8 1020.2 - 0.0 - - 10 - - - -
23/07:00pm 20.6 NE 7 8 1019.8 - 0.0 - - 10 - - - -
23/06:30pm 21.1 NE 8 11 1019.4 - 0.0 - - 10 - - - -
23/06:00pm 21.6 NE 8 11 1019.0 - 0.0 - - 10 - - - -
23/05:30pm 22.4 ENE 10 13 1018.6 - 0.0 - - 10 - - - -
23/05:00pm 23.5 ENE 13 16 1018.1 - 0.0 - - 10 - - - -
23/04:30pm 24.5 ENE 14 17 1017.7 - 0.0 - - 10 - - - -
23/04:00pm 25.4 ENE 13 16 1017.7 - 0.0 - - 10 - - - -
23/03:30pm 25.6 ENE 13 17 1017.9 - 0.0 - - 10 - - - -
23/03:00pm 26.2 E 11 15 1018.0 - 0.0 - - 10 - - - -
23/02:30pm 26.9 ENE 11 17 1018.0 - 0.0 - - 10 - - - -
23/02:00pm 26.2 E 10 14 1018.2 - 0.0 - - 10 - - - -
23/01:30pm 26.5 E 11 16 1018.4 - 0.0 - - 10 - - - -
23/01:00pm 26.2 ENE 11 17 1018.8 - 0.0 - - 10 - - - -
23/12:30pm 25.3 ESE 10 15 1019.2 - 0.0 - - 10 - - - -
23/12:00pm 25.2 E 10 16 1019.7 - 0.0 - - 10 - - - -
23/11:30am 25.7 SSE 9 14 1020.4 - 0.0 - - 10 - - - -
23/11:00am 24.6 E 9 15 1020.8 - 0.0 - - 10 - - - -
23/10:30am 24.4 SE 6 10 1021.2 - 0.0 - - 10 - - - -
23/10:00am 23.9 ESE 9 12 1021.6 - 0.0 - - 10 - - - -
23/09:30am 23.7 ESE 8 13 1021.8 - 0.0 - Partly cloudy 10 - - - -
23/09:00am 22.9 SSE 8 12 1021.9 - 0.0 - Mostly clear 10 - - - -
23/08:30am 21.8 SSE 8 12 1022.0 - 0.0 - Partly cloudy 10 - - - -
23/08:00am 21.8 SE 6 11 1022.2 - 0.0 - - 10 - - - -
23/07:30am 20.2 S 7 9 1021.9 - 0.0 - - 10 - - - -
23/07:00am 18.6 S 7 10 1021.9 - 0.0 - - 10 - - - -
23/06:30am 17.1 S 6 7 1021.8 - 0.0 - - 10 - - - -
23/06:00am 14.9 S 6 7 1021.8 - 0.0 - - 10 - - - -
23/05:30am 14.0 S 7 9 1021.5 - 0.0 - - 10 - - - -
23/05:00am 13.8 S 7 8 1021.5 - 0.0 - - 10 - - - -
23/04:30am 13.8 SSW 7 8 1021.4 - 0.0 - - 10 - - - -
23/04:00am 14.0 SSW 6 8 1021.3 - 0.0 - - 10 - - - -
23/03:30am 14.3 S 6 7 1021.0 - 0.0 - Partly cloudy 10 - - - -
23/03:00am 14.0 SSW 6 8 1020.9 - 0.0 - - 10 - - - -
23/02:30am 14.4 SSW 7 8 1021.0 - 0.0 - Partly cloudy 10 - - - -
23/02:00am 14.5 SSW 7 8 1021.1 - 0.0 - Partly cloudy 10 - - - -
23/01:30am 14.6 SSW 5 7 1021.4 - 0.0 - - 10 - - - -
23/01:00am 14.7 SSW 6 7 1021.7 - 0.0 - - 10 - - - -
23/12:30am 14.7 SSW 5 7 1022.0 - 0.0 - Partly cloudy 10 - - - -
23/12:00am 15.3 S 5 7 1022.1 - 0.0 - - 10 - - - -
 
Date/Time
EST
Temp

°C
Wind Pressure Rain
since 9am
mm
Weather Cloud Vis
km
Sea
Height
m
Swell
Dir
 
Speed
knots
Gust
knots
hPa Trend Height
m
Period
s
Dir
22/11:30pm 15.7 S 4 6 1022.3 - 0.0 - - 10 - - - -
22/11:00pm 16.3 SSE 6 9 1022.4 - 0.0 - - 10 - - - -
22/10:30pm 15.7 SSE 8 10 1022.4 - 0.0 - - 10 - - - -
22/10:00pm 16.2 SE 9 10 1022.5 - 0.0 - - 10 - - - -
22/09:30pm 16.4 SE 7 9 1022.5 - 0.0 - - 10 - - - -
22/09:00pm 18.0 SSE 8 11 1022.6 - 0.0 - - 10 - - - -
22/08:30pm 18.0 SE 10 12 1022.5 - 0.0 - - 10 - - - -
22/08:00pm 18.5 SE 10 13 1022.4 - 0.0 - - 10 - - - -
22/07:30pm 19.4 SE 13 16 1022.1 - 0.0 - - 10 - - - -
22/07:00pm 19.9 ESE 14 18 1021.9 - 0.0 - - 10 - - - -
22/06:30pm 20.4 ESE 14 19 1021.7 - 0.0 - - 10 - - - -
22/06:00pm 20.8 ESE 14 21 1021.4 - 0.0 - - 10 - - - -
22/05:58pm 20.9 ESE 15 25 1021.4 - 0.0 - - 10 - - - -
22/05:30pm 21.9 ESE 17 22 1021.1 - 0.0 - - 10 - - - -
22/05:00pm 22.8 E 17 23 1020.7 - 0.0 - - 10 - - - -
22/04:30pm 23.4 ESE 19 26 1020.4 - 0.0 - - 10 - - - -
22/04:00pm 24.0 ESE 19 25 1020.1 - 0.0 - - 10 - - - -
22/03:30pm 24.1 E 19 26 1020.1 - 0.0 - - 10 - - - -
22/03:00pm 24.7 ESE 18 24 1020.2 - 0.0 - - 10 - - - -
22/02:30pm 25.2 ESE 17 22 1020.2 - 0.0 - Partly cloudy 10 - - - -
22/02:04pm 25.7 E 17 27 1020.5 - 0.0 - - 10 - - - -
22/02:00pm 24.3 E 17 23 1020.6 - 0.0 - - 10 - - - -
22/01:30pm 26.2 ESE 16 24 1021.0 - 0.0 - Partly cloudy 10 - - - -
22/01:00pm 26.5 E 17 27 1021.2 - 0.0 - Partly cloudy 10 - - - -
22/12:56pm 25.5 E 17 27 1021.2 - 0.0 - Partly cloudy 10 - - - -
22/12:30pm 25.9 E 16 23 1021.6 - 0.0 - Partly cloudy 10 - - - -
22/12:07pm 26.0 ESE 15 25 1021.9 - 0.0 - Partly cloudy 10 - - - -
22/12:00pm 26.0 ESE 14 22 1022.2 - 0.0 - Partly cloudy 10 - - - -
22/11:30am 26.1 SE 15 20 1022.7 - 0.0 - Partly cloudy 10 - - - -
22/11:00am 24.6 SSE 13 22 1023.2 - 0.0 - Cloudy 10 - - - -
22/10:30am 23.8 SSE 13 21 1023.5 - 0.0 - Cloudy 10 - - - -
22/10:00am 23.6 SSE 13 20 1023.9 - 0.0 - Cloudy 10 - - - -

Other Formats:

Comma delimited format used in spreadsheet applications
http://www.bom.gov.au/fwo/IDQ60701/IDQ60701.94387.axf

JavaScript Object Notation format (JSON) in row-major order
http://www.bom.gov.au/fwo/IDQ60701/IDQ60701.94387.json